sensor_id;sensor_type;location;lat;lon;timestamp;P1;durP1;ratioP1;P2;durP2;ratioP2
52186;SDS011;38161;53.020;6.598;2023-03-01T00:02:02;25.47;;;16.77;;
52186;SDS011;38161;53.020;6.598;2023-03-01T00:04:29;22.57;;;15.30;;
52186;SDS011;38161;53.020;6.598;2023-03-01T00:06:55;26.52;;;16.63;;
52186;SDS011;38161;53.020;6.598;2023-03-01T00:09:21;21.17;;;14.95;;
52186;SDS011;38161;53.020;6.598;2023-03-01T00:11:47;24.70;;;15.80;;
52186;SDS011;38161;53.020;6.598;2023-03-01T00:14:13;25.17;;;15.50;;
52186;SDS011;38161;53.020;6.598;2023-03-01T00:16:41;25.53;;;16.73;;
52186;SDS011;38161;53.020;6.598;2023-03-01T00:19:12;24.70;;;16.90;;
52186;SDS011;38161;53.020;6.598;2023-03-01T00:21:39;26.87;;;16.47;;
52186;SDS011;38161;53.020;6.598;2023-03-01T00:24:06;32.00;;;18.33;;
52186;SDS011;38161;53.020;6.598;2023-03-01T00:26:32;30.02;;;17.60;;
52186;SDS011;38161;53.020;6.598;2023-03-01T00:28:58;23.00;;;16.27;;
52186;SDS011;38161;53.020;6.598;2023-03-01T00:31:25;25.50;;;17.30;;
52186;SDS011;38161;53.020;6.598;2023-03-01T00:33:58;28.30;;;16.33;;
52186;SDS011;38161;53.020;6.598;2023-03-01T00:36:30;33.27;;;17.30;;
52186;SDS011;38161;53.020;6.598;2023-03-01T00:38:58;63.33;;;18.93;;
52186;SDS011;38161;53.020;6.598;2023-03-01T00:41:24;33.30;;;17.23;;
52186;SDS011;38161;53.020;6.598;2023-03-01T00:43:51;44.00;;;17.97;;
52186;SDS011;38161;53.020;6.598;2023-03-01T00:46:19;35.13;;;17.75;;
52186;SDS011;38161;53.020;6.598;2023-03-01T00:48:46;60.10;;;18.87;;
52186;SDS011;38161;53.020;6.598;2023-03-01T00:53:42;124.50;;;21.83;;
52186;SDS011;38161;53.020;6.598;2023-03-01T00:56:09;116.97;;;21.17;;
52186;SDS011;38161;53.020;6.598;2023-03-01T00:58:36;106.77;;;22.47;;
52186;SDS011;38161;53.020;6.598;2023-03-01T01:01:22;226.35;;;25.05;;
52186;SDS011;38161;53.020;6.598;2023-03-01T01:04:00;208.37;;;24.83;;
52186;SDS011;38161;53.020;6.598;2023-03-01T01:06:30;290.00;;;29.73;;
52186;SDS011;38161;53.020;6.598;2023-03-01T01:09:04;215.90;;;26.40;;
52186;SDS011;38161;53.020;6.598;2023-03-01T01:11:32;148.47;;;21.90;;
52186;SDS011;38161;53.020;6.598;2023-03-01T01:13:58;166.80;;;23.60;;
52186;SDS011;38161;53.020;6.598;2023-03-01T01:16:25;177.02;;;23.23;;
52186;SDS011;38161;53.020;6.598;2023-03-01T01:18:52;219.33;;;24.47;;
52186;SDS011;38161;53.020;6.598;2023-03-01T01:21:19;229.65;;;24.98;;
52186;SDS011;38161;53.020;6.598;2023-03-01T01:23:47;474.80;;;30.30;;
52186;SDS011;38161;53.020;6.598;2023-03-01T01:26:17;469.42;;;29.13;;
52186;SDS011;38161;53.020;6.598;2023-03-01T01:28:47;404.00;;;28.03;;
52186;SDS011;38161;53.020;6.598;2023-03-01T01:31:13;177.93;;;21.33;;
52186;SDS011;38161;53.020;6.598;2023-03-01T01:33:39;123.55;;;18.75;;
52186;SDS011;38161;53.020;6.598;2023-03-01T01:36:06;61.38;;;17.02;;
52186;SDS011;38161;53.020;6.598;2023-03-01T01:40:58;32.43;;;16.63;;
52186;SDS011;38161;53.020;6.598;2023-03-01T01:45:55;24.83;;;15.77;;
52186;SDS011;38161;53.020;6.598;2023-03-01T01:48:27;27.73;;;16.50;;
52186;SDS011;38161;53.020;6.598;2023-03-01T01:51:05;24.83;;;16.40;;
52186;SDS011;38161;53.020;6.598;2023-03-01T01:53:35;23.50;;;15.00;;
52186;SDS011;38161;53.020;6.598;2023-03-01T01:58:28;21.80;;;14.00;;
52186;SDS011;38161;53.020;6.598;2023-03-01T02:00:55;25.63;;;14.77;;
52186;SDS011;38161;53.020;6.598;2023-03-01T02:03:25;133.32;;;19.70;;
52186;SDS011;38161;53.020;6.598;2023-03-01T02:08:31;50.63;;;18.37;;
52186;SDS011;38161;53.020;6.598;2023-03-01T02:11:00;77.97;;;20.63;;
52186;SDS011;38161;53.020;6.598;2023-03-01T02:13:30;67.63;;;18.70;;
52186;SDS011;38161;53.020;6.598;2023-03-01T02:15:57;54.97;;;17.53;;
52186;SDS011;38161;53.020;6.598;2023-03-01T02:18:23;29.15;;;15.43;;
52186;SDS011;38161;53.020;6.598;2023-03-01T02:23:38;211.63;;;26.45;;
52186;SDS011;38161;53.020;6.598;2023-03-01T02:26:06;158.63;;;21.48;;
52186;SDS011;38161;53.020;6.598;2023-03-01T02:28:34;67.53;;;18.53;;
52186;SDS011;38161;53.020;6.598;2023-03-01T02:31:02;43.27;;;17.10;;
52186;SDS011;38161;53.020;6.598;2023-03-01T02:33:49;29.42;;;16.52;;
52186;SDS011;38161;53.020;6.598;2023-03-01T02:36:18;46.67;;;17.60;;
52186;SDS011;38161;53.020;6.598;2023-03-01T02:38:56;47.93;;;17.47;;
52186;SDS011;38161;53.020;6.598;2023-03-01T02:41:24;91.53;;;18.33;;
52186;SDS011;38161;53.020;6.598;2023-03-01T02:43:53;114.83;;;18.50;;
52186;SDS011;38161;53.020;6.598;2023-03-01T02:46:23;31.37;;;15.33;;
52186;SDS011;38161;53.020;6.598;2023-03-01T02:48:52;33.40;;;16.90;;
52186;SDS011;38161;53.020;6.598;2023-03-01T02:53:48;117.57;;;19.33;;
52186;SDS011;38161;53.020;6.598;2023-03-01T02:56:42;40.07;;;17.60;;
52186;SDS011;38161;53.020;6.598;2023-03-01T03:01:35;26.27;;;15.43;;
52186;SDS011;38161;53.020;6.598;2023-03-01T03:04:04;27.50;;;16.63;;
52186;SDS011;38161;53.020;6.598;2023-03-01T03:06:32;25.33;;;16.13;;
52186;SDS011;38161;53.020;6.598;2023-03-01T03:08:58;25.27;;;15.75;;
52186;SDS011;38161;53.020;6.598;2023-03-01T03:11:25;25.42;;;15.00;;
52186;SDS011;38161;53.020;6.598;2023-03-01T03:13:51;23.38;;;14.70;;
52186;SDS011;38161;53.020;6.598;2023-03-01T03:16:17;21.67;;;14.52;;
52186;SDS011;38161;53.020;6.598;2023-03-01T03:21:10;24.23;;;14.80;;
52186;SDS011;38161;53.020;6.598;2023-03-01T03:23:37;23.37;;;14.97;;
52186;SDS011;38161;53.020;6.598;2023-03-01T03:26:03;25.63;;;15.85;;
52186;SDS011;38161;53.020;6.598;2023-03-01T03:28:29;27.92;;;15.95;;
52186;SDS011;38161;53.020;6.598;2023-03-01T03:30:56;25.40;;;16.20;;
52186;SDS011;38161;53.020;6.598;2023-03-01T03:33:23;32.40;;;17.03;;
52186;SDS011;38161;53.020;6.598;2023-03-01T03:35:50;29.42;;;17.38;;
52186;SDS011;38161;53.020;6.598;2023-03-01T03:38:17;53.55;;;18.15;;
52186;SDS011;38161;53.020;6.598;2023-03-01T03:40:52;26.60;;;16.30;;
52186;SDS011;38161;53.020;6.598;2023-03-01T03:43:29;64.80;;;17.77;;
52186;SDS011;38161;53.020;6.598;2023-03-01T03:45:57;67.27;;;17.13;;
52186;SDS011;38161;53.020;6.598;2023-03-01T03:48:23;138.15;;;19.35;;
52186;SDS011;38161;53.020;6.598;2023-03-01T03:53:17;91.83;;;16.87;;
52186;SDS011;38161;53.020;6.598;2023-03-01T03:55:43;142.50;;;19.13;;
52186;SDS011;38161;53.020;6.598;2023-03-01T03:58:10;138.82;;;19.63;;
52186;SDS011;38161;53.020;6.598;2023-03-01T04:03:06;61.10;;;18.10;;
52186;SDS011;38161;53.020;6.598;2023-03-01T04:05:32;28.27;;;14.77;;
52186;SDS011;38161;53.020;6.598;2023-03-01T04:07:59;23.40;;;15.38;;
52186;SDS011;38161;53.020;6.598;2023-03-01T04:10:29;23.40;;;15.50;;
52186;SDS011;38161;53.020;6.598;2023-03-01T04:12:56;24.63;;;15.03;;
52186;SDS011;38161;53.020;6.598;2023-03-01T04:15:23;23.15;;;15.15;;
52186;SDS011;38161;53.020;6.598;2023-03-01T04:17:51;24.80;;;15.30;;
52186;SDS011;38161;53.020;6.598;2023-03-01T04:20:21;35.87;;;15.70;;
52186;SDS011;38161;53.020;6.598;2023-03-01T04:22:57;33.47;;;14.60;;
52186;SDS011;38161;53.020;6.598;2023-03-01T04:25:33;30.60;;;15.20;;
52186;SDS011;38161;53.020;6.598;2023-03-01T04:27:59;44.40;;;14.73;;
52186;SDS011;38161;53.020;6.598;2023-03-01T04:30:24;47.50;;;14.37;;
52186;SDS011;38161;53.020;6.598;2023-03-01T04:32:50;75.90;;;16.30;;
52186;SDS011;38161;53.020;6.598;2023-03-01T04:35:16;99.93;;;17.03;;
52186;SDS011;38161;53.020;6.598;2023-03-01T04:37:42;48.60;;;16.03;;
52186;SDS011;38161;53.020;6.598;2023-03-01T04:40:08;91.23;;;15.97;;
52186;SDS011;38161;53.020;6.598;2023-03-01T04:42:40;59.70;;;15.10;;
52186;SDS011;38161;53.020;6.598;2023-03-01T04:45:07;100.40;;;17.17;;
52186;SDS011;38161;53.020;6.598;2023-03-01T04:47:41;58.80;;;15.30;;
52186;SDS011;38161;53.020;6.598;2023-03-01T04:50:10;95.20;;;16.67;;
52186;SDS011;38161;53.020;6.598;2023-03-01T04:52:37;88.60;;;16.07;;
52186;SDS011;38161;53.020;6.598;2023-03-01T04:55:03;42.80;;;14.40;;
52186;SDS011;38161;53.020;6.598;2023-03-01T04:57:30;25.67;;;13.50;;
52186;SDS011;38161;53.020;6.598;2023-03-01T04:59:56;19.90;;;13.20;;
52186;SDS011;38161;53.020;6.598;2023-03-01T05:02:22;19.27;;;13.30;;
52186;SDS011;38161;53.020;6.598;2023-03-01T05:04:48;18.83;;;12.57;;
52186;SDS011;38161;53.020;6.598;2023-03-01T05:07:14;18.85;;;12.90;;
52186;SDS011;38161;53.020;6.598;2023-03-01T05:09:45;20.77;;;12.87;;
52186;SDS011;38161;53.020;6.598;2023-03-01T05:12:11;17.67;;;12.33;;
52186;SDS011;38161;53.020;6.598;2023-03-01T05:17:04;18.17;;;11.73;;
52186;SDS011;38161;53.020;6.598;2023-03-01T05:19:30;18.17;;;12.35;;
52186;SDS011;38161;53.020;6.598;2023-03-01T05:21:57;17.93;;;12.53;;
52186;SDS011;38161;53.020;6.598;2023-03-01T05:24:29;18.57;;;12.23;;
52186;SDS011;38161;53.020;6.598;2023-03-01T05:26:57;16.87;;;12.07;;
52186;SDS011;38161;53.020;6.598;2023-03-01T05:29:24;17.83;;;11.90;;
52186;SDS011;38161;53.020;6.598;2023-03-01T05:31:53;15.63;;;11.07;;
52186;SDS011;38161;53.020;6.598;2023-03-01T05:34:28;18.67;;;12.53;;
52186;SDS011;38161;53.020;6.598;2023-03-01T05:36:55;17.17;;;10.97;;
52186;SDS011;38161;53.020;6.598;2023-03-01T05:39:22;17.10;;;11.73;;
52186;SDS011;38161;53.020;6.598;2023-03-01T05:41:53;16.87;;;11.10;;
52186;SDS011;38161;53.020;6.598;2023-03-01T05:44:20;16.20;;;11.57;;
52186;SDS011;38161;53.020;6.598;2023-03-01T05:46:46;17.97;;;11.83;;
52186;SDS011;38161;53.020;6.598;2023-03-01T05:49:12;17.55;;;11.65;;
52186;SDS011;38161;53.020;6.598;2023-03-01T05:51:39;17.33;;;12.35;;
52186;SDS011;38161;53.020;6.598;2023-03-01T05:54:05;14.60;;;10.70;;
52186;SDS011;38161;53.020;6.598;2023-03-01T05:56:34;17.47;;;12.13;;
52186;SDS011;38161;53.020;6.598;2023-03-01T05:59:01;17.13;;;12.00;;
52186;SDS011;38161;53.020;6.598;2023-03-01T06:01:28;17.63;;;11.30;;
52186;SDS011;38161;53.020;6.598;2023-03-01T06:03:54;17.00;;;11.57;;
52186;SDS011;38161;53.020;6.598;2023-03-01T06:06:21;14.97;;;11.30;;
52186;SDS011;38161;53.020;6.598;2023-03-01T06:08:48;17.95;;;11.80;;
52186;SDS011;38161;53.020;6.598;2023-03-01T06:11:14;17.02;;;11.50;;
52186;SDS011;38161;53.020;6.598;2023-03-01T06:13:41;16.27;;;11.37;;
52186;SDS011;38161;53.020;6.598;2023-03-01T06:16:07;17.47;;;11.27;;
52186;SDS011;38161;53.020;6.598;2023-03-01T06:18:34;16.70;;;11.32;;
52186;SDS011;38161;53.020;6.598;2023-03-01T06:21:00;17.10;;;11.33;;
52186;SDS011;38161;53.020;6.598;2023-03-01T06:23:25;16.50;;;10.57;;
52186;SDS011;38161;53.020;6.598;2023-03-01T06:25:51;15.37;;;11.27;;
52186;SDS011;38161;53.020;6.598;2023-03-01T06:28:17;17.67;;;12.20;;
52186;SDS011;38161;53.020;6.598;2023-03-01T06:30:43;18.23;;;12.38;;
52186;SDS011;38161;53.020;6.598;2023-03-01T06:33:09;18.35;;;12.38;;
52186;SDS011;38161;53.020;6.598;2023-03-01T06:35:35;18.80;;;12.70;;
52186;SDS011;38161;53.020;6.598;2023-03-01T06:38:02;16.77;;;11.75;;
52186;SDS011;38161;53.020;6.598;2023-03-01T06:40:28;18.40;;;12.30;;
52186;SDS011;38161;53.020;6.598;2023-03-01T06:42:56;17.30;;;11.23;;
52186;SDS011;38161;53.020;6.598;2023-03-01T06:45:22;18.73;;;12.20;;
52186;SDS011;38161;53.020;6.598;2023-03-01T06:47:49;17.63;;;12.40;;
52186;SDS011;38161;53.020;6.598;2023-03-01T06:50:15;15.80;;;10.77;;
52186;SDS011;38161;53.020;6.598;2023-03-01T06:52:42;18.50;;;12.00;;
52186;SDS011;38161;53.020;6.598;2023-03-01T06:55:10;21.07;;;12.87;;
52186;SDS011;38161;53.020;6.598;2023-03-01T06:57:37;20.27;;;12.17;;
52186;SDS011;38161;53.020;6.598;2023-03-01T07:00:03;16.15;;;11.60;;
52186;SDS011;38161;53.020;6.598;2023-03-01T07:02:31;18.03;;;12.17;;
52186;SDS011;38161;53.020;6.598;2023-03-01T07:04:57;18.85;;;12.38;;
52186;SDS011;38161;53.020;6.598;2023-03-01T07:07:22;22.93;;;12.20;;
52186;SDS011;38161;53.020;6.598;2023-03-01T07:09:49;20.13;;;12.90;;
52186;SDS011;38161;53.020;6.598;2023-03-01T07:12:15;19.77;;;12.95;;
52186;SDS011;38161;53.020;6.598;2023-03-01T07:14:41;22.80;;;14.30;;
52186;SDS011;38161;53.020;6.598;2023-03-01T07:17:09;21.43;;;14.00;;
52186;SDS011;38161;53.020;6.598;2023-03-01T07:19:35;21.67;;;14.23;;
52186;SDS011;38161;53.020;6.598;2023-03-01T07:22:01;20.95;;;14.30;;
52186;SDS011;38161;53.020;6.598;2023-03-01T07:24:29;22.13;;;13.57;;
52186;SDS011;38161;53.020;6.598;2023-03-01T07:26:55;25.25;;;14.88;;
52186;SDS011;38161;53.020;6.598;2023-03-01T07:29:21;21.23;;;13.23;;
52186;SDS011;38161;53.020;6.598;2023-03-01T07:31:46;24.42;;;15.02;;
52186;SDS011;38161;53.020;6.598;2023-03-01T07:34:12;23.03;;;14.70;;
52186;SDS011;38161;53.020;6.598;2023-03-01T07:36:38;22.30;;;14.13;;
52186;SDS011;38161;53.020;6.598;2023-03-01T07:39:04;22.27;;;14.18;;
52186;SDS011;38161;53.020;6.598;2023-03-01T07:41:30;23.73;;;15.20;;
52186;SDS011;38161;53.020;6.598;2023-03-01T07:43:56;21.80;;;15.00;;
52186;SDS011;38161;53.020;6.598;2023-03-01T07:46:22;22.13;;;14.07;;
52186;SDS011;38161;53.020;6.598;2023-03-01T07:48:47;24.97;;;14.77;;
52186;SDS011;38161;53.020;6.598;2023-03-01T07:51:13;26.93;;;15.60;;
52186;SDS011;38161;53.020;6.598;2023-03-01T07:53:39;26.40;;;15.40;;
52186;SDS011;38161;53.020;6.598;2023-03-01T07:56:06;23.67;;;14.23;;
52186;SDS011;38161;53.020;6.598;2023-03-01T07:58:34;31.13;;;18.17;;
52186;SDS011;38161;53.020;6.598;2023-03-01T08:03:30;30.73;;;18.57;;
52186;SDS011;38161;53.020;6.598;2023-03-01T08:05:59;34.17;;;19.33;;
52186;SDS011;38161;53.020;6.598;2023-03-01T08:08:25;32.83;;;17.97;;
52186;SDS011;38161;53.020;6.598;2023-03-01T08:10:51;38.80;;;21.05;;
52186;SDS011;38161;53.020;6.598;2023-03-01T08:13:17;37.77;;;21.23;;
52186;SDS011;38161;53.020;6.598;2023-03-01T08:15:47;38.23;;;21.70;;
52186;SDS011;38161;53.020;6.598;2023-03-01T08:18:14;35.00;;;21.30;;
52186;SDS011;38161;53.020;6.598;2023-03-01T08:20:41;47.20;;;24.20;;
52186;SDS011;38161;53.020;6.598;2023-03-01T08:23:07;48.15;;;24.50;;
52186;SDS011;38161;53.020;6.598;2023-03-01T08:25:33;44.50;;;24.13;;
52186;SDS011;38161;53.020;6.598;2023-03-01T08:27:58;52.50;;;26.80;;
52186;SDS011;38161;53.020;6.598;2023-03-01T08:30:24;48.60;;;25.67;;
52186;SDS011;38161;53.020;6.598;2023-03-01T08:32:50;50.87;;;26.73;;
52186;SDS011;38161;53.020;6.598;2023-03-01T08:35:16;53.75;;;27.10;;
52186;SDS011;38161;53.020;6.598;2023-03-01T08:37:43;48.90;;;26.38;;
52186;SDS011;38161;53.020;6.598;2023-03-01T08:40:09;51.45;;;26.77;;
52186;SDS011;38161;53.020;6.598;2023-03-01T08:42:36;48.10;;;26.27;;
52186;SDS011;38161;53.020;6.598;2023-03-01T08:45:03;50.30;;;27.42;;
52186;SDS011;38161;53.020;6.598;2023-03-01T08:49:54;52.80;;;28.23;;
52186;SDS011;38161;53.020;6.598;2023-03-01T08:52:20;59.53;;;29.50;;
52186;SDS011;38161;53.020;6.598;2023-03-01T08:54:49;56.00;;;30.17;;
52186;SDS011;38161;53.020;6.598;2023-03-01T08:57:15;57.37;;;29.40;;
52186;SDS011;38161;53.020;6.598;2023-03-01T08:59:41;59.38;;;30.15;;
52186;SDS011;38161;53.020;6.598;2023-03-01T09:02:14;67.10;;;32.95;;
52186;SDS011;38161;53.020;6.598;2023-03-01T09:04:42;64.70;;;32.53;;
52186;SDS011;38161;53.020;6.598;2023-03-01T09:07:08;66.22;;;31.75;;
52186;SDS011;38161;53.020;6.598;2023-03-01T09:09:34;67.60;;;33.50;;
52186;SDS011;38161;53.020;6.598;2023-03-01T09:14:27;68.53;;;31.70;;
52186;SDS011;38161;53.020;6.598;2023-03-01T09:16:53;65.25;;;32.42;;
52186;SDS011;38161;53.020;6.598;2023-03-01T09:19:19;71.27;;;35.20;;
52186;SDS011;38161;53.020;6.598;2023-03-01T09:21:45;72.95;;;34.92;;
52186;SDS011;38161;53.020;6.598;2023-03-01T09:24:17;77.47;;;36.37;;
52186;SDS011;38161;53.020;6.598;2023-03-01T09:26:47;76.73;;;37.50;;
52186;SDS011;38161;53.020;6.598;2023-03-01T09:29:14;78.40;;;38.75;;
52186;SDS011;38161;53.020;6.598;2023-03-01T09:31:41;74.63;;;36.43;;
52186;SDS011;38161;53.020;6.598;2023-03-01T09:34:07;75.28;;;36.28;;
52186;SDS011;38161;53.020;6.598;2023-03-01T09:36:33;71.97;;;38.83;;
52186;SDS011;38161;53.020;6.598;2023-03-01T09:41:32;61.40;;;31.77;;
52186;SDS011;38161;53.020;6.598;2023-03-01T09:46:59;51.47;;;26.73;;
52186;SDS011;38161;53.020;6.598;2023-03-01T09:49:36;48.87;;;27.43;;
52186;SDS011;38161;53.020;6.598;2023-03-01T09:52:25;48.43;;;27.83;;
52186;SDS011;38161;53.020;6.598;2023-03-01T09:55:11;50.97;;;27.20;;
52186;SDS011;38161;53.020;6.598;2023-03-01T09:57:54;48.40;;;28.00;;
52186;SDS011;38161;53.020;6.598;2023-03-01T10:11:31;37.92;;;22.73;;
52186;SDS011;38161;53.020;6.598;2023-03-01T10:14:05;42.97;;;23.35;;
52186;SDS011;38161;53.020;6.598;2023-03-01T10:16:43;42.05;;;24.88;;
52186;SDS011;38161;53.020;6.598;2023-03-01T10:19:31;39.50;;;22.23;;
52186;SDS011;38161;53.020;6.598;2023-03-01T10:22:35;40.40;;;23.27;;
52186;SDS011;38161;53.020;6.598;2023-03-01T10:24:56;42.03;;;24.05;;
52186;SDS011;38161;53.020;6.598;2023-03-01T10:27:25;36.88;;;22.05;;
52186;SDS011;38161;53.020;6.598;2023-03-01T10:32:59;38.20;;;22.27;;
52186;SDS011;38161;53.020;6.598;2023-03-01T10:35:25;36.93;;;22.73;;
52186;SDS011;38161;53.020;6.598;2023-03-01T10:37:59;36.22;;;20.27;;
52186;SDS011;38161;53.020;6.598;2023-03-01T10:40:29;35.03;;;21.80;;
52186;SDS011;38161;53.020;6.598;2023-03-01T10:43:00;36.50;;;21.63;;
52186;SDS011;38161;53.020;6.598;2023-03-01T10:45:33;35.67;;;21.77;;
52186;SDS011;38161;53.020;6.598;2023-03-01T10:51:12;36.30;;;22.50;;
52186;SDS011;38161;53.020;6.598;2023-03-01T10:53:41;33.80;;;21.25;;
52186;SDS011;38161;53.020;6.598;2023-03-01T10:56:13;29.25;;;19.23;;
52186;SDS011;38161;53.020;6.598;2023-03-01T10:58:40;26.80;;;18.10;;
52186;SDS011;38161;53.020;6.598;2023-03-01T11:03:54;27.73;;;17.70;;
52186;SDS011;38161;53.020;6.598;2023-03-01T11:06:31;29.13;;;18.48;;
52186;SDS011;38161;53.020;6.598;2023-03-01T11:11:38;29.70;;;18.75;;
52186;SDS011;38161;53.020;6.598;2023-03-01T11:14:07;25.25;;;17.75;;
52186;SDS011;38161;53.020;6.598;2023-03-01T11:16:46;29.00;;;16.58;;
52186;SDS011;38161;53.020;6.598;2023-03-01T11:21:43;23.90;;;16.42;;
52186;SDS011;38161;53.020;6.598;2023-03-01T11:24:18;25.30;;;17.05;;
52186;SDS011;38161;53.020;6.598;2023-03-01T11:26:50;23.88;;;17.13;;
52186;SDS011;38161;53.020;6.598;2023-03-01T11:29:38;26.27;;;17.95;;
52186;SDS011;38161;53.020;6.598;2023-03-01T11:32:08;24.65;;;17.42;;
52186;SDS011;38161;53.020;6.598;2023-03-01T11:37:13;27.75;;;19.73;;
52186;SDS011;38161;53.020;6.598;2023-03-01T11:42:52;28.25;;;18.75;;
52186;SDS011;38161;53.020;6.598;2023-03-01T11:45:40;27.02;;;18.05;;
52186;SDS011;38161;53.020;6.598;2023-03-01T11:50:53;27.13;;;17.17;;
52186;SDS011;38161;53.020;6.598;2023-03-01T11:55:54;25.30;;;17.42;;
52186;SDS011;38161;53.020;6.598;2023-03-01T11:58:35;27.85;;;17.13;;
52186;SDS011;38161;53.020;6.598;2023-03-01T12:25:20;19.77;;;13.65;;
52186;SDS011;38161;53.020;6.598;2023-03-01T12:33:23;22.88;;;15.07;;
52186;SDS011;38161;53.020;6.598;2023-03-01T12:43:47;21.17;;;15.02;;
52186;SDS011;38161;53.020;6.598;2023-03-01T12:47:07;21.02;;;15.15;;
52186;SDS011;38161;53.020;6.598;2023-03-01T12:52:37;21.75;;;16.08;;
52186;SDS011;38161;53.020;6.598;2023-03-01T12:55:17;20.58;;;14.95;;
52186;SDS011;38161;53.020;6.598;2023-03-01T13:00:30;23.13;;;16.70;;
52186;SDS011;38161;53.020;6.598;2023-03-01T13:11:32;21.45;;;15.35;;
52186;SDS011;38161;53.020;6.598;2023-03-01T13:16:51;25.88;;;17.23;;
52186;SDS011;38161;53.020;6.598;2023-03-01T13:19:18;22.33;;;16.35;;
52186;SDS011;38161;53.020;6.598;2023-03-01T13:21:54;23.90;;;16.38;;
52186;SDS011;38161;53.020;6.598;2023-03-01T13:24:28;24.10;;;16.63;;
52186;SDS011;38161;53.020;6.598;2023-03-01T13:29:45;23.83;;;17.08;;
52186;SDS011;38161;53.020;6.598;2023-03-01T13:32:29;25.00;;;16.88;;
52186;SDS011;38161;53.020;6.598;2023-03-01T13:35:00;22.52;;;15.52;;
52186;SDS011;38161;53.020;6.598;2023-03-01T13:37:30;23.95;;;16.17;;
52186;SDS011;38161;53.020;6.598;2023-03-01T13:39:59;25.13;;;17.40;;
52186;SDS011;38161;53.020;6.598;2023-03-01T13:45:03;23.63;;;16.23;;
52186;SDS011;38161;53.020;6.598;2023-03-01T13:47:54;23.75;;;16.25;;
52186;SDS011;38161;53.020;6.598;2023-03-01T13:50:33;24.00;;;17.10;;
52186;SDS011;38161;53.020;6.598;2023-03-01T13:53:10;23.13;;;16.65;;
52186;SDS011;38161;53.020;6.598;2023-03-01T13:55:42;23.38;;;15.88;;
52186;SDS011;38161;53.020;6.598;2023-03-01T14:00:59;24.23;;;16.05;;
52186;SDS011;38161;53.020;6.598;2023-03-01T14:03:28;21.77;;;15.93;;
52186;SDS011;38161;53.020;6.598;2023-03-01T14:08:43;23.42;;;16.25;;
52186;SDS011;38161;53.020;6.598;2023-03-01T14:16:49;27.15;;;16.27;;
52186;SDS011;38161;53.020;6.598;2023-03-01T14:19:24;21.73;;;15.77;;
52186;SDS011;38161;53.020;6.598;2023-03-01T14:22:03;23.45;;;15.75;;
52186;SDS011;38161;53.020;6.598;2023-03-01T14:24:40;23.08;;;15.77;;
52186;SDS011;38161;53.020;6.598;2023-03-01T14:27:12;26.23;;;17.33;;
52186;SDS011;38161;53.020;6.598;2023-03-01T14:29:39;20.95;;;15.10;;
52186;SDS011;38161;53.020;6.598;2023-03-01T14:32:19;21.88;;;15.68;;
52186;SDS011;38161;53.020;6.598;2023-03-01T14:34:48;21.60;;;15.02;;
52186;SDS011;38161;53.020;6.598;2023-03-01T14:37:36;21.23;;;14.43;;
52186;SDS011;38161;53.020;6.598;2023-03-01T14:40:02;19.92;;;13.02;;
52186;SDS011;38161;53.020;6.598;2023-03-01T14:42:31;19.77;;;13.00;;
52186;SDS011;38161;53.020;6.598;2023-03-01T14:45:00;19.50;;;13.15;;
52186;SDS011;38161;53.020;6.598;2023-03-01T14:47:28;18.42;;;13.48;;
52186;SDS011;38161;53.020;6.598;2023-03-01T14:50:20;17.98;;;13.20;;
52186;SDS011;38161;53.020;6.598;2023-03-01T14:52:51;22.10;;;13.75;;
52186;SDS011;38161;53.020;6.598;2023-03-01T14:55:21;22.55;;;14.80;;
52186;SDS011;38161;53.020;6.598;2023-03-01T14:58:02;23.13;;;15.18;;
52186;SDS011;38161;53.020;6.598;2023-03-01T15:00:30;23.27;;;15.88;;
52186;SDS011;38161;53.020;6.598;2023-03-01T15:03:01;23.65;;;15.02;;
52186;SDS011;38161;53.020;6.598;2023-03-01T15:05:35;22.17;;;15.32;;
52186;SDS011;38161;53.020;6.598;2023-03-01T15:08:02;22.67;;;15.57;;
52186;SDS011;38161;53.020;6.598;2023-03-01T15:10:31;20.98;;;14.45;;
52186;SDS011;38161;53.020;6.598;2023-03-01T15:13:12;21.63;;;15.88;;
52186;SDS011;38161;53.020;6.598;2023-03-01T15:15:45;24.80;;;16.70;;
52186;SDS011;38161;53.020;6.598;2023-03-01T15:18:14;25.25;;;15.45;;
52186;SDS011;38161;53.020;6.598;2023-03-01T15:20:43;22.63;;;15.77;;
52186;SDS011;38161;53.020;6.598;2023-03-01T15:23:20;23.70;;;17.08;;
52186;SDS011;38161;53.020;6.598;2023-03-01T15:25:50;24.90;;;16.92;;
52186;SDS011;38161;53.020;6.598;2023-03-01T15:28:22;27.30;;;18.63;;
52186;SDS011;38161;53.020;6.598;2023-03-01T15:31:02;26.27;;;17.10;;
52186;SDS011;38161;53.020;6.598;2023-03-01T15:33:36;24.05;;;15.88;;
52186;SDS011;38161;53.020;6.598;2023-03-01T15:36:04;25.48;;;16.45;;
52186;SDS011;38161;53.020;6.598;2023-03-01T15:38:58;27.15;;;17.48;;
52186;SDS011;38161;53.020;6.598;2023-03-01T15:41:28;30.10;;;15.95;;
52186;SDS011;38161;53.020;6.598;2023-03-01T15:44:14;25.17;;;16.20;;
52186;SDS011;38161;53.020;6.598;2023-03-01T15:46:44;24.25;;;16.75;;
52186;SDS011;38161;53.020;6.598;2023-03-01T15:49:55;25.35;;;16.58;;
52186;SDS011;38161;53.020;6.598;2023-03-01T15:52:02;26.90;;;17.50;;
52186;SDS011;38161;53.020;6.598;2023-03-01T15:54:28;27.73;;;18.35;;
52186;SDS011;38161;53.020;6.598;2023-03-01T15:56:55;27.25;;;18.35;;
52186;SDS011;38161;53.020;6.598;2023-03-01T15:59:20;25.17;;;16.08;;
52186;SDS011;38161;53.020;6.598;2023-03-01T16:01:47;25.27;;;17.02;;
52186;SDS011;38161;53.020;6.598;2023-03-01T16:04:14;25.48;;;17.35;;
52186;SDS011;38161;53.020;6.598;2023-03-01T16:06:51;25.83;;;16.20;;
52186;SDS011;38161;53.020;6.598;2023-03-01T16:09:24;25.17;;;16.77;;
52186;SDS011;38161;53.020;6.598;2023-03-01T16:11:51;25.98;;;16.88;;
52186;SDS011;38161;53.020;6.598;2023-03-01T16:14:17;24.60;;;16.55;;
52186;SDS011;38161;53.020;6.598;2023-03-01T16:16:44;25.17;;;16.60;;
52186;SDS011;38161;53.020;6.598;2023-03-01T16:19:10;26.25;;;16.55;;
52186;SDS011;38161;53.020;6.598;2023-03-01T16:21:37;43.20;;;17.70;;
52186;SDS011;38161;53.020;6.598;2023-03-01T16:24:03;24.35;;;16.50;;
52186;SDS011;38161;53.020;6.598;2023-03-01T16:26:29;26.45;;;17.27;;
52186;SDS011;38161;53.020;6.598;2023-03-01T16:28:56;28.13;;;18.40;;
52186;SDS011;38161;53.020;6.598;2023-03-01T16:31:22;26.33;;;17.00;;
52186;SDS011;38161;53.020;6.598;2023-03-01T16:33:52;29.48;;;18.58;;
52186;SDS011;38161;53.020;6.598;2023-03-01T16:36:19;28.10;;;18.45;;
52186;SDS011;38161;53.020;6.598;2023-03-01T16:38:48;27.35;;;17.88;;
52186;SDS011;38161;53.020;6.598;2023-03-01T16:41:15;29.45;;;17.60;;
52186;SDS011;38161;53.020;6.598;2023-03-01T16:43:42;29.42;;;18.02;;
52186;SDS011;38161;53.020;6.598;2023-03-01T16:46:19;27.63;;;18.45;;
52186;SDS011;38161;53.020;6.598;2023-03-01T16:48:47;27.20;;;18.40;;
52186;SDS011;38161;53.020;6.598;2023-03-01T16:51:14;29.70;;;18.13;;
52186;SDS011;38161;53.020;6.598;2023-03-01T16:53:40;25.48;;;16.55;;
52186;SDS011;38161;53.020;6.598;2023-03-01T16:56:07;29.75;;;18.27;;
52186;SDS011;38161;53.020;6.598;2023-03-01T16:58:35;27.80;;;17.38;;
52186;SDS011;38161;53.020;6.598;2023-03-01T17:01:15;26.08;;;17.25;;
52186;SDS011;38161;53.020;6.598;2023-03-01T17:03:43;30.38;;;17.25;;
52186;SDS011;38161;53.020;6.598;2023-03-01T17:06:12;31.48;;;18.27;;